sensor_id;sensor_type;location;lat;lon;timestamp;temperature;humidity
21306;DHT22;10812;51.838;5.838;2022-08-19T00:01:27;19.20;99.90
21306;DHT22;10812;51.838;5.838;2022-08-19T00:03:56;19.10;99.90
21306;DHT22;10812;51.838;5.838;2022-08-19T00:06:25;19.10;99.90
21306;DHT22;10812;51.838;5.838;2022-08-19T00:08:54;19.10;99.90
21306;DHT22;10812;51.838;5.838;2022-08-19T00:11:22;19.10;99.90
21306;DHT22;10812;51.838;5.838;2022-08-19T00:13:52;19.00;99.90
21306;DHT22;10812;51.838;5.838;2022-08-19T00:16:23;19.00;99.90
21306;DHT22;10812;51.838;5.838;2022-08-19T00:18:54;18.90;99.90
21306;DHT22;10812;51.838;5.838;2022-08-19T00:21:23;18.90;99.90
21306;DHT22;10812;51.838;5.838;2022-08-19T00:23:51;18.90;99.90
21306;DHT22;10812;51.838;5.838;2022-08-19T00:26:19;18.80;99.90
21306;DHT22;10812;51.838;5.838;2022-08-19T00:28:48;18.80;99.90
21306;DHT22;10812;51.838;5.838;2022-08-19T00:31:16;18.70;99.90
21306;DHT22;10812;51.838;5.838;2022-08-19T00:33:44;18.70;99.90
21306;DHT22;10812;51.838;5.838;2022-08-19T00:36:13;18.70;99.90
21306;DHT22;10812;51.838;5.838;2022-08-19T00:38:42;18.60;99.90
21306;DHT22;10812;51.838;5.838;2022-08-19T00:41:13;18.60;99.90
21306;DHT22;10812;51.838;5.838;2022-08-19T00:43:41;18.60;99.90
21306;DHT22;10812;51.838;5.838;2022-08-19T00:46:11;18.60;99.90
21306;DHT22;10812;51.838;5.838;2022-08-19T00:48:39;18.60;99.90
21306;DHT22;10812;51.838;5.838;2022-08-19T00:51:08;18.50;99.90
21306;DHT22;10812;51.838;5.838;2022-08-19T00:53:38;18.50;99.90
21306;DHT22;10812;51.838;5.838;2022-08-19T00:56:06;18.50;99.90
21306;DHT22;10812;51.838;5.838;2022-08-19T00:58:36;18.40;99.90
21306;DHT22;10812;51.838;5.838;2022-08-19T01:01:05;18.40;99.90
21306;DHT22;10812;51.838;5.838;2022-08-19T01:03:34;18.40;99.90
21306;DHT22;10812;51.838;5.838;2022-08-19T01:06:22;18.30;99.90
21306;DHT22;10812;51.838;5.838;2022-08-19T01:08:52;18.30;99.90
21306;DHT22;10812;51.838;5.838;2022-08-19T01:11:20;18.30;99.90
21306;DHT22;10812;51.838;5.838;2022-08-19T01:13:49;18.20;99.90
21306;DHT22;10812;51.838;5.838;2022-08-19T01:16:19;18.20;99.90
21306;DHT22;10812;51.838;5.838;2022-08-19T01:18:48;18.20;99.90
21306;DHT22;10812;51.838;5.838;2022-08-19T01:21:20;18.20;99.90
21306;DHT22;10812;51.838;5.838;2022-08-19T01:23:51;18.20;99.90
21306;DHT22;10812;51.838;5.838;2022-08-19T01:26:21;18.10;99.90
21306;DHT22;10812;51.838;5.838;2022-08-19T01:28:52;18.10;99.90
21306;DHT22;10812;51.838;5.838;2022-08-19T01:31:29;18.10;99.90
21306;DHT22;10812;51.838;5.838;2022-08-19T01:34:00;18.10;99.90
21306;DHT22;10812;51.838;5.838;2022-08-19T01:36:31;18.10;99.90
21306;DHT22;10812;51.838;5.838;2022-08-19T01:39:06;18.00;99.90
21306;DHT22;10812;51.838;5.838;2022-08-19T01:41:34;18.00;99.90
21306;DHT22;10812;51.838;5.838;2022-08-19T01:44:03;18.00;99.90
21306;DHT22;10812;51.838;5.838;2022-08-19T01:46:45;18.00;99.90
21306;DHT22;10812;51.838;5.838;2022-08-19T01:49:14;18.00;99.90
21306;DHT22;10812;51.838;5.838;2022-08-19T01:51:43;18.10;99.90
21306;DHT22;10812;51.838;5.838;2022-08-19T01:54:14;18.10;99.90
21306;DHT22;10812;51.838;5.838;2022-08-19T01:56:57;18.20;99.90
21306;DHT22;10812;51.838;5.838;2022-08-19T01:59:27;18.20;99.90
21306;DHT22;10812;51.838;5.838;2022-08-19T02:01:55;18.20;99.90
21306;DHT22;10812;51.838;5.838;2022-08-19T02:04:24;18.20;99.90
21306;DHT22;10812;51.838;5.838;2022-08-19T02:06:53;18.10;99.90
21306;DHT22;10812;51.838;5.838;2022-08-19T02:09:23;18.20;99.90
21306;DHT22;10812;51.838;5.838;2022-08-19T02:11:51;18.10;99.90
21306;DHT22;10812;51.838;5.838;2022-08-19T02:14:20;18.10;99.90
21306;DHT22;10812;51.838;5.838;2022-08-19T02:16:48;18.10;99.90
21306;DHT22;10812;51.838;5.838;2022-08-19T02:19:16;18.10;99.90
21306;DHT22;10812;51.838;5.838;2022-08-19T02:21:44;18.10;99.90
21306;DHT22;10812;51.838;5.838;2022-08-19T02:24:12;18.10;99.90
21306;DHT22;10812;51.838;5.838;2022-08-19T02:26:42;18.10;99.90
21306;DHT22;10812;51.838;5.838;2022-08-19T02:29:10;18.10;99.90
21306;DHT22;10812;51.838;5.838;2022-08-19T02:31:38;18.20;99.90
21306;DHT22;10812;51.838;5.838;2022-08-19T02:34:06;18.20;99.90
21306;DHT22;10812;51.838;5.838;2022-08-19T02:36:34;18.10;99.90
21306;DHT22;10812;51.838;5.838;2022-08-19T02:39:08;18.10;99.90
21306;DHT22;10812;51.838;5.838;2022-08-19T02:41:35;18.00;99.90
21306;DHT22;10812;51.838;5.838;2022-08-19T02:44:05;18.00;99.90
21306;DHT22;10812;51.838;5.838;2022-08-19T02:46:53;18.00;99.90
21306;DHT22;10812;51.838;5.838;2022-08-19T02:49:22;17.90;99.90
21306;DHT22;10812;51.838;5.838;2022-08-19T02:51:50;17.90;99.90
21306;DHT22;10812;51.838;5.838;2022-08-19T02:54:18;17.80;99.90
21306;DHT22;10812;51.838;5.838;2022-08-19T02:56:46;17.80;99.90
21306;DHT22;10812;51.838;5.838;2022-08-19T02:59:16;17.80;99.90
21306;DHT22;10812;51.838;5.838;2022-08-19T03:07:19;17.70;99.90
21306;DHT22;10812;51.838;5.838;2022-08-19T03:09:47;17.80;99.90
21306;DHT22;10812;51.838;5.838;2022-08-19T03:12:15;17.70;99.90
21306;DHT22;10812;51.838;5.838;2022-08-19T03:14:44;17.70;99.90
21306;DHT22;10812;51.838;5.838;2022-08-19T03:17:13;17.60;99.90
21306;DHT22;10812;51.838;5.838;2022-08-19T03:19:41;17.50;99.90
21306;DHT22;10812;51.838;5.838;2022-08-19T03:22:10;17.50;99.90
21306;DHT22;10812;51.838;5.838;2022-08-19T03:24:38;17.50;99.90
21306;DHT22;10812;51.838;5.838;2022-08-19T03:27:07;17.40;99.90
21306;DHT22;10812;51.838;5.838;2022-08-19T03:29:36;17.40;99.90
21306;DHT22;10812;51.838;5.838;2022-08-19T03:32:11;17.40;99.90
21306;DHT22;10812;51.838;5.838;2022-08-19T03:34:58;17.30;99.90
21306;DHT22;10812;51.838;5.838;2022-08-19T03:37:26;17.40;99.90
21306;DHT22;10812;51.838;5.838;2022-08-19T03:39:55;17.30;99.90
21306;DHT22;10812;51.838;5.838;2022-08-19T03:42:23;17.30;99.90
21306;DHT22;10812;51.838;5.838;2022-08-19T03:45:04;17.20;99.90
21306;DHT22;10812;51.838;5.838;2022-08-19T03:47:35;17.20;99.90
21306;DHT22;10812;51.838;5.838;2022-08-19T03:50:04;17.20;99.90
21306;DHT22;10812;51.838;5.838;2022-08-19T03:52:32;17.20;99.90
21306;DHT22;10812;51.838;5.838;2022-08-19T03:55:00;17.20;99.90
21306;DHT22;10812;51.838;5.838;2022-08-19T03:57:29;17.20;99.90
21306;DHT22;10812;51.838;5.838;2022-08-19T03:59:57;17.20;99.90
21306;DHT22;10812;51.838;5.838;2022-08-19T04:02:40;17.10;99.90
21306;DHT22;10812;51.838;5.838;2022-08-19T04:05:26;17.10;99.90
21306;DHT22;10812;51.838;5.838;2022-08-19T04:07:55;17.10;99.90
21306;DHT22;10812;51.838;5.838;2022-08-19T04:10:26;17.10;99.90
21306;DHT22;10812;51.838;5.838;2022-08-19T04:12:54;17.30;99.90
21306;DHT22;10812;51.838;5.838;2022-08-19T04:15:22;17.20;99.90
21306;DHT22;10812;51.838;5.838;2022-08-19T04:17:52;17.20;99.90
21306;DHT22;10812;51.838;5.838;2022-08-19T04:20:20;17.10;99.90
21306;DHT22;10812;51.838;5.838;2022-08-19T04:22:48;17.10;99.90
21306;DHT22;10812;51.838;5.838;2022-08-19T04:25:16;17.00;99.90
21306;DHT22;10812;51.838;5.838;2022-08-19T04:27:44;17.00;99.90
21306;DHT22;10812;51.838;5.838;2022-08-19T04:30:13;17.00;99.90
21306;DHT22;10812;51.838;5.838;2022-08-19T04:32:41;17.00;99.90
21306;DHT22;10812;51.838;5.838;2022-08-19T04:35:12;17.00;99.90
21306;DHT22;10812;51.838;5.838;2022-08-19T04:37:44;16.90;99.90
21306;DHT22;10812;51.838;5.838;2022-08-19T04:40:12;16.90;99.90
21306;DHT22;10812;51.838;5.838;2022-08-19T04:42:58;16.90;99.90
21306;DHT22;10812;51.838;5.838;2022-08-19T04:45:26;16.90;99.90
21306;DHT22;10812;51.838;5.838;2022-08-19T04:48:04;16.90;99.90
21306;DHT22;10812;51.838;5.838;2022-08-19T04:50:55;16.90;99.90
21306;DHT22;10812;51.838;5.838;2022-08-19T04:53:25;16.90;99.90
21306;DHT22;10812;51.838;5.838;2022-08-19T04:55:55;16.90;99.90
21306;DHT22;10812;51.838;5.838;2022-08-19T04:58:28;16.90;99.90
21306;DHT22;10812;51.838;5.838;2022-08-19T05:00:56;17.00;99.90
21306;DHT22;10812;51.838;5.838;2022-08-19T05:03:26;17.00;99.90
21306;DHT22;10812;51.838;5.838;2022-08-19T05:06:06;17.00;99.90
21306;DHT22;10812;51.838;5.838;2022-08-19T05:08:35;17.10;99.90
21306;DHT22;10812;51.838;5.838;2022-08-19T05:11:08;17.10;99.90
21306;DHT22;10812;51.838;5.838;2022-08-19T05:13:39;17.10;99.90
21306;DHT22;10812;51.838;5.838;2022-08-19T05:16:10;17.10;99.90
21306;DHT22;10812;51.838;5.838;2022-08-19T05:18:38;17.20;99.90
21306;DHT22;10812;51.838;5.838;2022-08-19T05:21:26;17.20;99.90
21306;DHT22;10812;51.838;5.838;2022-08-19T05:24:12;17.40;99.90
21306;DHT22;10812;51.838;5.838;2022-08-19T05:26:42;17.50;99.90
21306;DHT22;10812;51.838;5.838;2022-08-19T05:29:13;17.50;99.90
21306;DHT22;10812;51.838;5.838;2022-08-19T05:31:42;17.60;99.90
21306;DHT22;10812;51.838;5.838;2022-08-19T05:34:11;17.70;99.90
21306;DHT22;10812;51.838;5.838;2022-08-19T05:36:50;17.80;99.90
21306;DHT22;10812;51.838;5.838;2022-08-19T05:39:25;18.00;99.90
21306;DHT22;10812;51.838;5.838;2022-08-19T05:41:56;18.20;99.90
21306;DHT22;10812;51.838;5.838;2022-08-19T05:44:25;18.40;99.90
21306;DHT22;10812;51.838;5.838;2022-08-19T05:46:53;18.60;99.90
21306;DHT22;10812;51.838;5.838;2022-08-19T05:49:23;18.70;99.90
21306;DHT22;10812;51.838;5.838;2022-08-19T05:51:54;18.90;99.90
21306;DHT22;10812;51.838;5.838;2022-08-19T05:54:24;19.10;99.90
21306;DHT22;10812;51.838;5.838;2022-08-19T05:56:53;19.20;99.90
21306;DHT22;10812;51.838;5.838;2022-08-19T05:59:22;19.40;99.90
21306;DHT22;10812;51.838;5.838;2022-08-19T06:01:53;19.50;99.90
21306;DHT22;10812;51.838;5.838;2022-08-19T06:04:23;19.60;99.90
21306;DHT22;10812;51.838;5.838;2022-08-19T06:06:53;19.70;99.90
21306;DHT22;10812;51.838;5.838;2022-08-19T06:09:23;19.80;99.90
21306;DHT22;10812;51.838;5.838;2022-08-19T06:11:53;20.00;99.90
21306;DHT22;10812;51.838;5.838;2022-08-19T06:14:24;20.60;99.90
21306;DHT22;10812;51.838;5.838;2022-08-19T06:16:53;21.80;99.90
21306;DHT22;10812;51.838;5.838;2022-08-19T06:19:22;23.00;99.90
21306;DHT22;10812;51.838;5.838;2022-08-19T06:21:53;23.50;99.90
21306;DHT22;10812;51.838;5.838;2022-08-19T06:24:24;23.50;99.90
21306;DHT22;10812;51.838;5.838;2022-08-19T06:26:54;23.00;99.90
21306;DHT22;10812;51.838;5.838;2022-08-19T06:29:28;22.60;99.90
21306;DHT22;10812;51.838;5.838;2022-08-19T06:32:00;21.90;99.90
21306;DHT22;10812;51.838;5.838;2022-08-19T06:34:31;21.50;99.90
21306;DHT22;10812;51.838;5.838;2022-08-19T06:37:02;21.20;99.90
21306;DHT22;10812;51.838;5.838;2022-08-19T06:39:34;20.90;99.90
21306;DHT22;10812;51.838;5.838;2022-08-19T06:42:04;20.70;99.90
21306;DHT22;10812;51.838;5.838;2022-08-19T06:44:37;20.70;99.90
21306;DHT22;10812;51.838;5.838;2022-08-19T06:47:11;20.90;99.90
21306;DHT22;10812;51.838;5.838;2022-08-19T06:49:53;21.40;99.90
21306;DHT22;10812;51.838;5.838;2022-08-19T06:52:31;22.60;99.90
21306;DHT22;10812;51.838;5.838;2022-08-19T06:55:02;23.90;99.90
21306;DHT22;10812;51.838;5.838;2022-08-19T06:57:32;24.90;99.90
21306;DHT22;10812;51.838;5.838;2022-08-19T07:00:01;25.70;99.90
21306;DHT22;10812;51.838;5.838;2022-08-19T07:02:30;25.70;99.90
21306;DHT22;10812;51.838;5.838;2022-08-19T07:04:58;26.00;99.90
21306;DHT22;10812;51.838;5.838;2022-08-19T07:07:34;26.40;99.90
21306;DHT22;10812;51.838;5.838;2022-08-19T07:10:03;26.20;99.90
21306;DHT22;10812;51.838;5.838;2022-08-19T07:12:33;26.60;99.90
21306;DHT22;10812;51.838;5.838;2022-08-19T07:15:04;27.80;99.90
21306;DHT22;10812;51.838;5.838;2022-08-19T07:17:35;27.90;99.90
21306;DHT22;10812;51.838;5.838;2022-08-19T07:20:06;28.00;99.90
21306;DHT22;10812;51.838;5.838;2022-08-19T07:22:38;28.90;99.90
21306;DHT22;10812;51.838;5.838;2022-08-19T07:25:07;29.80;99.90
21306;DHT22;10812;51.838;5.838;2022-08-19T07:27:36;30.00;99.90
21306;DHT22;10812;51.838;5.838;2022-08-19T07:30:06;29.80;99.90
21306;DHT22;10812;51.838;5.838;2022-08-19T07:32:37;29.30;99.90
21306;DHT22;10812;51.838;5.838;2022-08-19T07:35:09;30.30;99.30
21306;DHT22;10812;51.838;5.838;2022-08-19T07:37:38;29.60;99.80
21306;DHT22;10812;51.838;5.838;2022-08-19T07:40:11;29.70;99.90
21306;DHT22;10812;51.838;5.838;2022-08-19T07:58:05;31.60;96.60
21306;DHT22;10812;51.838;5.838;2022-08-19T08:00:33;31.50;96.10
21306;DHT22;10812;51.838;5.838;2022-08-19T08:03:02;31.40;96.60
21306;DHT22;10812;51.838;5.838;2022-08-19T08:05:31;31.60;96.00
21306;DHT22;10812;51.838;5.838;2022-08-19T08:08:16;32.00;94.90
21306;DHT22;10812;51.838;5.838;2022-08-19T08:11:14;32.00;94.40
21306;DHT22;10812;51.838;5.838;2022-08-19T08:17:25;31.70;94.90
21306;DHT22;10812;51.838;5.838;2022-08-19T08:20:14;32.90;93.90
21306;DHT22;10812;51.838;5.838;2022-08-19T08:22:44;32.80;93.20
21306;DHT22;10812;51.838;5.838;2022-08-19T08:25:30;32.60;93.00
21306;DHT22;10812;51.838;5.838;2022-08-19T08:28:02;31.60;93.80
21306;DHT22;10812;51.838;5.838;2022-08-19T08:30:31;31.20;94.90
21306;DHT22;10812;51.838;5.838;2022-08-19T08:33:03;31.30;93.80
21306;DHT22;10812;51.838;5.838;2022-08-19T08:35:32;31.20;94.00
21306;DHT22;10812;51.838;5.838;2022-08-19T08:38:01;31.80;93.70
21306;DHT22;10812;51.838;5.838;2022-08-19T08:40:34;31.90;93.50
21306;DHT22;10812;51.838;5.838;2022-08-19T08:43:08;31.90;93.80
21306;DHT22;10812;51.838;5.838;2022-08-19T08:45:43;32.30;92.90
21306;DHT22;10812;51.838;5.838;2022-08-19T08:48:39;32.10;92.50
21306;DHT22;10812;51.838;5.838;2022-08-19T08:51:14;32.30;92.40
21306;DHT22;10812;51.838;5.838;2022-08-19T08:53:49;32.30;92.80
21306;DHT22;10812;51.838;5.838;2022-08-19T08:56:22;32.00;92.90
21306;DHT22;10812;51.838;5.838;2022-08-19T08:58:54;32.30;92.40
21306;DHT22;10812;51.838;5.838;2022-08-19T09:01:25;31.90;92.10
21306;DHT22;10812;51.838;5.838;2022-08-19T09:03:58;30.90;92.90
21306;DHT22;10812;51.838;5.838;2022-08-19T09:06:35;31.50;93.70
21306;DHT22;10812;51.838;5.838;2022-08-19T09:09:14;31.40;93.20
21306;DHT22;10812;51.838;5.838;2022-08-19T09:11:50;31.40;93.00
21306;DHT22;10812;51.838;5.838;2022-08-19T09:14:37;31.80;92.80
21306;DHT22;10812;51.838;5.838;2022-08-19T09:17:18;32.30;92.20
21306;DHT22;10812;51.838;5.838;2022-08-19T09:19:51;32.10;92.20
21306;DHT22;10812;51.838;5.838;2022-08-19T09:22:20;31.80;92.70
21306;DHT22;10812;51.838;5.838;2022-08-19T09:24:53;31.90;92.70
21306;DHT22;10812;51.838;5.838;2022-08-19T09:27:23;31.40;92.40
21306;DHT22;10812;51.838;5.838;2022-08-19T09:30:12;31.60;92.70
21306;DHT22;10812;51.838;5.838;2022-08-19T09:32:42;31.50;92.90
21306;DHT22;10812;51.838;5.838;2022-08-19T09:35:13;31.50;93.40
21306;DHT22;10812;51.838;5.838;2022-08-19T09:37:42;31.70;93.90
21306;DHT22;10812;51.838;5.838;2022-08-19T09:40:11;30.40;95.40
21306;DHT22;10812;51.838;5.838;2022-08-19T09:42:41;29.30;97.00
21306;DHT22;10812;51.838;5.838;2022-08-19T09:45:18;27.50;99.90
21306;DHT22;10812;51.838;5.838;2022-08-19T09:47:49;27.40;99.90
21306;DHT22;10812;51.838;5.838;2022-08-19T09:50:22;27.90;99.90
21306;DHT22;10812;51.838;5.838;2022-08-19T09:52:51;29.20;99.70
21306;DHT22;10812;51.838;5.838;2022-08-19T09:55:25;28.70;99.10
21306;DHT22;10812;51.838;5.838;2022-08-19T09:58:00;28.70;99.30
21306;DHT22;10812;51.838;5.838;2022-08-19T10:00:28;29.00;98.40
21306;DHT22;10812;51.838;5.838;2022-08-19T10:02:57;27.60;99.90
21306;DHT22;10812;51.838;5.838;2022-08-19T10:05:28;26.90;99.90
21306;DHT22;10812;51.838;5.838;2022-08-19T10:08:15;27.20;99.90
21306;DHT22;10812;51.838;5.838;2022-08-19T10:10:44;27.50;99.90
21306;DHT22;10812;51.838;5.838;2022-08-19T10:13:14;28.00;98.40
21306;DHT22;10812;51.838;5.838;2022-08-19T10:15:43;27.80;98.90
21306;DHT22;10812;51.838;5.838;2022-08-19T10:18:15;27.80;98.60
21306;DHT22;10812;51.838;5.838;2022-08-19T10:20:47;27.70;99.00
21306;DHT22;10812;51.838;5.838;2022-08-19T10:23:19;27.90;99.10
21306;DHT22;10812;51.838;5.838;2022-08-19T10:25:48;27.80;99.00
21306;DHT22;10812;51.838;5.838;2022-08-19T10:28:18;27.80;99.00
21306;DHT22;10812;51.838;5.838;2022-08-19T10:30:46;27.10;99.90
21306;DHT22;10812;51.838;5.838;2022-08-19T10:33:14;27.40;99.90
21306;DHT22;10812;51.838;5.838;2022-08-19T10:36:09;27.70;99.60
21306;DHT22;10812;51.838;5.838;2022-08-19T10:38:37;27.40;99.90
21306;DHT22;10812;51.838;5.838;2022-08-19T10:41:21;27.90;99.60
21306;DHT22;10812;51.838;5.838;2022-08-19T10:43:52;27.80;99.20
21306;DHT22;10812;51.838;5.838;2022-08-19T10:46:22;27.40;99.50
21306;DHT22;10812;51.838;5.838;2022-08-19T10:48:51;26.80;99.90
21306;DHT22;10812;51.838;5.838;2022-08-19T10:51:20;27.00;99.90
21306;DHT22;10812;51.838;5.838;2022-08-19T10:54:18;26.70;99.90
21306;DHT22;10812;51.838;5.838;2022-08-19T10:56:57;26.20;99.90
21306;DHT22;10812;51.838;5.838;2022-08-19T10:59:26;26.70;99.90
21306;DHT22;10812;51.838;5.838;2022-08-19T11:02:03;26.70;99.90
21306;DHT22;10812;51.838;5.838;2022-08-19T11:04:32;26.80;99.90
21306;DHT22;10812;51.838;5.838;2022-08-19T11:07:04;26.70;99.90
21306;DHT22;10812;51.838;5.838;2022-08-19T11:09:37;26.70;99.90
21306;DHT22;10812;51.838;5.838;2022-08-19T11:12:07;26.80;99.90
21306;DHT22;10812;51.838;5.838;2022-08-19T11:14:35;26.50;99.90
21306;DHT22;10812;51.838;5.838;2022-08-19T11:17:05;26.50;99.90
21306;DHT22;10812;51.838;5.838;2022-08-19T11:19:34;26.60;99.90
21306;DHT22;10812;51.838;5.838;2022-08-19T11:22:03;26.50;99.90
21306;DHT22;10812;51.838;5.838;2022-08-19T11:24:35;26.50;99.90
21306;DHT22;10812;51.838;5.838;2022-08-19T11:27:06;26.60;99.90
21306;DHT22;10812;51.838;5.838;2022-08-19T11:29:37;26.60;99.90
21306;DHT22;10812;51.838;5.838;2022-08-19T11:32:09;26.80;99.90
21306;DHT22;10812;51.838;5.838;2022-08-19T11:34:37;26.50;99.90
21306;DHT22;10812;51.838;5.838;2022-08-19T11:37:07;26.60;99.90
21306;DHT22;10812;51.838;5.838;2022-08-19T11:39:36;26.90;99.90
21306;DHT22;10812;51.838;5.838;2022-08-19T11:42:06;27.00;99.90
21306;DHT22;10812;51.838;5.838;2022-08-19T11:44:54;27.30;99.90
21306;DHT22;10812;51.838;5.838;2022-08-19T11:47:22;27.40;99.90
21306;DHT22;10812;51.838;5.838;2022-08-19T11:49:51;27.10;99.90
21306;DHT22;10812;51.838;5.838;2022-08-19T11:52:21;27.10;99.90
21306;DHT22;10812;51.838;5.838;2022-08-19T11:54:49;27.20;99.90
21306;DHT22;10812;51.838;5.838;2022-08-19T11:57:17;27.30;99.90
21306;DHT22;10812;51.838;5.838;2022-08-19T11:59:49;27.00;99.90
21306;DHT22;10812;51.838;5.838;2022-08-19T12:02:18;26.80;99.90
21306;DHT22;10812;51.838;5.838;2022-08-19T12:04:46;26.70;99.90
21306;DHT22;10812;51.838;5.838;2022-08-19T12:07:15;26.70;99.90
21306;DHT22;10812;51.838;5.838;2022-08-19T12:09:45;26.40;99.90
21306;DHT22;10812;51.838;5.838;2022-08-19T12:12:14;26.50;99.90
21306;DHT22;10812;51.838;5.838;2022-08-19T12:14:42;26.50;99.90
21306;DHT22;10812;51.838;5.838;2022-08-19T12:17:11;26.50;99.90
21306;DHT22;10812;51.838;5.838;2022-08-19T12:19:40;26.70;99.90
21306;DHT22;10812;51.838;5.838;2022-08-19T12:22:08;26.90;99.90
21306;DHT22;10812;51.838;5.838;2022-08-19T12:24:36;26.70;99.90
21306;DHT22;10812;51.838;5.838;2022-08-19T12:27:05;26.90;99.90
21306;DHT22;10812;51.838;5.838;2022-08-19T12:29:38;26.60;99.90
21306;DHT22;10812;51.838;5.838;2022-08-19T12:32:08;26.60;99.90
21306;DHT22;10812;51.838;5.838;2022-08-19T12:34:38;26.30;99.90
21306;DHT22;10812;51.838;5.838;2022-08-19T12:37:07;26.30;99.90
21306;DHT22;10812;51.838;5.838;2022-08-19T12:39:37;26.50;99.90
21306;DHT22;10812;51.838;5.838;2022-08-19T12:42:07;26.50;99.90
21306;DHT22;10812;51.838;5.838;2022-08-19T12:44:37;26.80;99.90
21306;DHT22;10812;51.838;5.838;2022-08-19T12:47:09;27.20;99.90
21306;DHT22;10812;51.838;5.838;2022-08-19T12:49:38;27.20;99.90
21306;DHT22;10812;51.838;5.838;2022-08-19T12:52:22;27.10;99.90
21306;DHT22;10812;51.838;5.838;2022-08-19T12:54:50;26.70;99.90
21306;DHT22;10812;51.838;5.838;2022-08-19T12:57:22;26.50;99.90
21306;DHT22;10812;51.838;5.838;2022-08-19T12:59:59;26.30;99.90
21306;DHT22;10812;51.838;5.838;2022-08-19T13:02:31;26.30;99.90
21306;DHT22;10812;51.838;5.838;2022-08-19T13:05:07;26.70;99.90
21306;DHT22;10812;51.838;5.838;2022-08-19T13:07:36;27.00;99.90
21306;DHT22;10812;51.838;5.838;2022-08-19T13:10:06;26.90;99.90
21306;DHT22;10812;51.838;5.838;2022-08-19T13:12:36;26.50;99.90
21306;DHT22;10812;51.838;5.838;2022-08-19T13:15:05;26.50;99.90
21306;DHT22;10812;51.838;5.838;2022-08-19T13:17:38;26.70;99.90
21306;DHT22;10812;51.838;5.838;2022-08-19T13:20:08;26.50;99.90
21306;DHT22;10812;51.838;5.838;2022-08-19T13:22:37;26.50;99.90
21306;DHT22;10812;51.838;5.838;2022-08-19T13:25:07;26.60;99.90
21306;DHT22;10812;51.838;5.838;2022-08-19T13:27:37;26.90;99.90
21306;DHT22;10812;51.838;5.838;2022-08-19T13:30:08;27.00;99.90
21306;DHT22;10812;51.838;5.838;2022-08-19T13:33:05;26.70;99.90
21306;DHT22;10812;51.838;5.838;2022-08-19T13:35:47;26.50;99.90
21306;DHT22;10812;51.838;5.838;2022-08-19T13:38:17;26.30;99.90
21306;DHT22;10812;51.838;5.838;2022-08-19T13:40:47;26.30;99.90
21306;DHT22;10812;51.838;5.838;2022-08-19T13:43:18;26.50;99.90
21306;DHT22;10812;51.838;5.838;2022-08-19T13:45:50;26.80;99.90
21306;DHT22;10812;51.838;5.838;2022-08-19T13:48:20;26.70;99.90
21306;DHT22;10812;51.838;5.838;2022-08-19T13:50:49;26.60;99.90
21306;DHT22;10812;51.838;5.838;2022-08-19T13:53:17;26.90;99.90
21306;DHT22;10812;51.838;5.838;2022-08-19T13:55:45;27.00;99.90
21306;DHT22;10812;51.838;5.838;2022-08-19T13:58:14;27.00;99.90
21306;DHT22;10812;51.838;5.838;2022-08-19T14:05:09;27.40;99.90
21306;DHT22;10812;51.838;5.838;2022-08-19T14:07:38;27.50;99.90
21306;DHT22;10812;51.838;5.838;2022-08-19T14:10:09;27.70;99.90
21306;DHT22;10812;51.838;5.838;2022-08-19T14:12:38;27.70;99.90
21306;DHT22;10812;51.838;5.838;2022-08-19T14:15:07;27.70;99.90
21306;DHT22;10812;51.838;5.838;2022-08-19T14:17:37;27.50;99.90
21306;DHT22;10812;51.838;5.838;2022-08-19T14:20:10;27.40;99.90
21306;DHT22;10812;51.838;5.838;2022-08-19T14:22:46;27.50;99.90
21306;DHT22;10812;51.838;5.838;2022-08-19T14:25:17;27.60;99.90
21306;DHT22;10812;51.838;5.838;2022-08-19T14:27:47;27.60;99.90
21306;DHT22;10812;51.838;5.838;2022-08-19T14:30:17;27.20;99.90
21306;DHT22;10812;51.838;5.838;2022-08-19T14:32:45;27.10;99.90
21306;DHT22;10812;51.838;5.838;2022-08-19T14:35:16;26.90;99.90
21306;DHT22;10812;51.838;5.838;2022-08-19T14:37:45;27.00;99.90
21306;DHT22;10812;51.838;5.838;2022-08-19T14:40:15;27.00;99.90
21306;DHT22;10812;51.838;5.838;2022-08-19T14:42:44;26.70;99.90
21306;DHT22;10812;51.838;5.838;2022-08-19T14:45:13;26.50;99.90
21306;DHT22;10812;51.838;5.838;2022-08-19T14:47:41;26.70;99.90
21306;DHT22;10812;51.838;5.838;2022-08-19T14:50:12;26.80;99.90
21306;DHT22;10812;51.838;5.838;2022-08-19T14:52:46;26.80;99.90
21306;DHT22;10812;51.838;5.838;2022-08-19T14:55:16;26.80;99.90
21306;DHT22;10812;51.838;5.838;2022-08-19T14:57:45;26.80;99.90
21306;DHT22;10812;51.838;5.838;2022-08-19T15:00:14;26.60;99.90
21306;DHT22;10812;51.838;5.838;2022-08-19T15:02:43;26.50;99.90
21306;DHT22;10812;51.838;5.838;2022-08-19T15:05:12;26.60;99.90
21306;DHT22;10812;51.838;5.838;2022-08-19T15:07:40;26.20;99.90
21306;DHT22;10812;51.838;5.838;2022-08-19T15:10:12;26.10;99.90
21306;DHT22;10812;51.838;5.838;2022-08-19T15:12:41;26.30;99.90
21306;DHT22;10812;51.838;5.838;2022-08-19T15:15:11;26.40;99.90
21306;DHT22;10812;51.838;5.838;2022-08-19T15:17:40;26.30;99.90
21306;DHT22;10812;51.838;5.838;2022-08-19T15:20:15;26.30;99.90
21306;DHT22;10812;51.838;5.838;2022-08-19T15:22:43;26.20;99.90
21306;DHT22;10812;51.838;5.838;2022-08-19T15:25:15;26.10;99.90
21306;DHT22;10812;51.838;5.838;2022-08-19T15:27:45;26.20;99.90
21306;DHT22;10812;51.838;5.838;2022-08-19T15:30:20;26.00;99.90
21306;DHT22;10812;51.838;5.838;2022-08-19T15:32:48;25.90;99.90
21306;DHT22;10812;51.838;5.838;2022-08-19T15:35:18;25.90;99.90
21306;DHT22;10812;51.838;5.838;2022-08-19T15:37:48;26.10;99.90
21306;DHT22;10812;51.838;5.838;2022-08-19T15:40:22;26.10;99.90
21306;DHT22;10812;51.838;5.838;2022-08-19T15:42:50;25.80;99.90
21306;DHT22;10812;51.838;5.838;2022-08-19T15:45:20;25.60;99.90
21306;DHT22;10812;51.838;5.838;2022-08-19T15:47:52;25.30;99.90
21306;DHT22;10812;51.838;5.838;2022-08-19T15:50:20;25.10;99.90
21306;DHT22;10812;51.838;5.838;2022-08-19T15:52:51;24.90;99.90
21306;DHT22;10812;51.838;5.838;2022-08-19T15:55:23;24.60;99.90
21306;DHT22;10812;51.838;5.838;2022-08-19T15:58:00;24.50;99.90
21306;DHT22;10812;51.838;5.838;2022-08-19T16:00:55;24.20;99.90
21306;DHT22;10812;51.838;5.838;2022-08-19T16:03:41;23.90;99.90
21306;DHT22;10812;51.838;5.838;2022-08-19T16:06:27;23.80;99.90
21306;DHT22;10812;51.838;5.838;2022-08-19T16:08:59;23.50;99.90
21306;DHT22;10812;51.838;5.838;2022-08-19T16:11:32;23.50;99.90
21306;DHT22;10812;51.838;5.838;2022-08-19T16:14:05;23.50;99.90
21306;DHT22;10812;51.838;5.838;2022-08-19T16:16:35;23.60;99.90
21306;DHT22;10812;51.838;5.838;2022-08-19T16:19:06;23.60;99.90
21306;DHT22;10812;51.838;5.838;2022-08-19T16:21:38;23.80;99.90
21306;DHT22;10812;51.838;5.838;2022-08-19T16:24:09;23.80;99.90
21306;DHT22;10812;51.838;5.838;2022-08-19T16:26:42;23.50;99.90